createdAt,value
2018-12-13T00:00:05.999Z,8.13
2018-12-13T00:02:09.458Z,8.77
2018-12-13T00:04:11.993Z,8.43
2018-12-13T00:06:14.639Z,9.00
2018-12-13T00:08:17.218Z,8.57
2018-12-13T00:10:19.807Z,9.53
2018-12-13T00:12:22.436Z,9.47
2018-12-13T00:14:25.142Z,7.90
2018-12-13T00:16:27.887Z,9.70
2018-12-13T00:18:30.442Z,9.00
2018-12-13T00:20:33.089Z,8.67
2018-12-13T00:22:35.743Z,7.67
2018-12-13T00:24:38.272Z,8.47
2018-12-13T00:26:40.792Z,9.47
2018-12-13T00:28:43.305Z,8.43
2018-12-13T00:30:45.844Z,9.30
2018-12-13T00:32:48.425Z,7.93
2018-12-13T00:34:50.965Z,8.53
2018-12-13T00:36:53.482Z,10.77
2018-12-13T00:38:56.227Z,9.07
2018-12-13T00:40:58.777Z,9.70
2018-12-13T00:43:01.364Z,10.67
2018-12-13T00:45:05.390Z,10.43
2018-12-13T00:47:07.939Z,10.60
2018-12-13T00:49:10.481Z,10.33
2018-12-13T00:51:13.146Z,12.57
2018-12-13T00:53:15.767Z,10.27
2018-12-13T00:55:18.398Z,10.53
2018-12-13T00:57:21.010Z,10.50
2018-12-13T00:59:23.699Z,10.90
2018-12-13T01:01:26.394Z,11.03
2018-12-13T01:03:29.082Z,11.63
2018-12-13T01:05:31.696Z,10.57
2018-12-13T01:07:34.370Z,10.00
2018-12-13T01:09:36.887Z,10.40
2018-12-13T01:11:39.456Z,9.90
2018-12-13T01:13:42.095Z,9.80
2018-12-13T01:15:44.709Z,10.67
2018-12-13T01:17:47.254Z,11.13
2018-12-13T01:19:49.898Z,12.17
2018-12-13T01:21:52.532Z,10.23
2018-12-13T01:23:55.090Z,12.87
2018-12-13T01:25:57.686Z,11.30
2018-12-13T01:28:00.214Z,10.30
2018-12-13T01:30:02.762Z,9.90
2018-12-13T01:32:05.332Z,12.77
2018-12-13T01:34:07.842Z,11.07
2018-12-13T01:36:10.486Z,12.00
2018-12-13T01:38:13.002Z,12.43
2018-12-13T01:40:15.609Z,11.90
2018-12-13T01:42:18.252Z,11.37
2018-12-13T01:44:20.935Z,13.73
2018-12-13T01:46:23.549Z,15.17
2018-12-13T01:48:26.057Z,9.77
2018-12-13T01:50:28.617Z,12.60
2018-12-13T01:52:31.360Z,12.20
2018-12-13T01:54:33.878Z,12.63
2018-12-13T01:56:36.494Z,11.23
2018-12-13T01:58:39.080Z,12.37
2018-12-13T02:00:41.718Z,13.43
2018-12-13T02:02:44.317Z,13.17
2018-12-13T02:04:46.859Z,11.90
2018-12-13T02:06:49.394Z,10.47
2018-12-13T02:08:51.993Z,11.93
2018-12-13T02:10:54.613Z,11.30
2018-12-13T02:12:57.259Z,12.40
2018-12-13T02:14:59.771Z,12.43
2018-12-13T02:17:02.294Z,13.50
2018-12-13T02:19:04.901Z,12.33
2018-12-13T02:21:07.515Z,10.77
2018-12-13T02:23:10.144Z,14.07
2018-12-13T02:25:12.772Z,13.13
2018-12-13T02:27:15.274Z,12.43
2018-12-13T02:29:17.823Z,11.43
2018-12-13T02:31:20.496Z,13.73
2018-12-13T02:33:23.071Z,15.07
2018-12-13T02:35:25.677Z,13.37
2018-12-13T02:37:28.437Z,11.77
2018-12-13T02:39:31.058Z,12.77
2018-12-13T02:41:33.699Z,13.80
2018-12-13T02:43:36.252Z,12.60
2018-12-13T02:45:38.935Z,13.30
2018-12-13T02:47:41.577Z,13.97
2018-12-13T02:49:44.128Z,12.50
2018-12-13T02:51:46.737Z,12.93
2018-12-13T02:53:49.248Z,14.13
2018-12-13T02:55:51.853Z,11.80
2018-12-13T02:57:54.444Z,15.43
2018-12-13T02:59:56.963Z,12.83
2018-12-13T03:01:59.639Z,11.10
2018-12-13T03:04:02.175Z,13.30
2018-12-13T03:06:04.704Z,14.53
2018-12-13T03:08:07.294Z,13.47
2018-12-13T03:10:09.926Z,15.37
2018-12-13T03:12:12.526Z,13.30
2018-12-13T03:14:15.089Z,14.60
2018-12-13T03:16:17.620Z,13.60
2018-12-13T03:18:20.214Z,15.50
2018-12-13T03:20:22.817Z,15.00
2018-12-13T03:22:25.458Z,14.73
2018-12-13T03:24:28.060Z,13.13
2018-12-13T03:26:30.794Z,15.40
2018-12-13T03:28:33.385Z,12.93
2018-12-13T03:30:36.012Z,14.97
2018-12-13T03:32:38.609Z,13.00
2018-12-13T03:34:41.131Z,14.27
2018-12-13T03:36:43.789Z,14.10
2018-12-13T03:38:46.343Z,13.30
2018-12-13T03:40:48.972Z,14.57
2018-12-13T03:42:51.550Z,12.97
2018-12-13T03:44:54.265Z,14.53
2018-12-13T03:46:56.799Z,13.63
2018-12-13T03:48:59.370Z,13.63
2018-12-13T03:51:01.955Z,14.77
2018-12-13T03:53:04.646Z,13.93
2018-12-13T03:55:07.298Z,13.23
2018-12-13T03:57:09.838Z,13.37
2018-12-13T03:59:12.509Z,12.17
2018-12-13T04:01:15.162Z,12.27
2018-12-13T04:03:17.859Z,12.70
2018-12-13T04:05:20.473Z,13.30
2018-12-13T04:07:27.716Z,13.53
2018-12-13T04:09:27.776Z,14.00
2018-12-13T04:11:30.464Z,13.23
2018-12-13T04:13:33.112Z,13.87
2018-12-13T04:15:35.767Z,13.63
2018-12-13T04:17:38.401Z,13.60
2018-12-13T04:19:41.027Z,13.57
2018-12-13T04:21:43.737Z,15.10
2018-12-13T04:23:46.271Z,14.03
2018-12-13T04:25:48.870Z,16.40
2018-12-13T04:27:51.486Z,12.77
2018-12-13T04:29:54.020Z,13.57
2018-12-13T04:31:56.614Z,14.60
2018-12-13T04:33:59.241Z,14.43
2018-12-13T04:36:01.789Z,14.70
2018-12-13T04:38:04.391Z,14.17
2018-12-13T04:40:07.028Z,13.57
2018-12-13T04:42:09.626Z,13.17
2018-12-13T04:44:12.158Z,16.60
2018-12-13T04:46:14.833Z,22.70
2018-12-13T04:48:17.479Z,16.17
2018-12-13T04:50:19.985Z,13.83
2018-12-13T04:52:22.582Z,13.70
2018-12-13T04:54:25.100Z,14.17
2018-12-13T04:56:27.624Z,14.77
2018-12-13T04:58:30.278Z,14.67
2018-12-13T05:00:32.971Z,18.13
2018-12-13T05:02:35.618Z,16.20
2018-12-13T05:04:38.265Z,18.53
2018-12-13T05:06:40.887Z,17.30
2018-12-13T05:08:43.422Z,14.87
2018-12-13T05:10:50.877Z,17.50
2018-12-13T05:12:53.421Z,14.80
2018-12-13T05:14:56.192Z,14.20
2018-12-13T05:16:58.738Z,15.30
2018-12-13T05:19:01.246Z,14.33
2018-12-13T05:21:03.777Z,16.93
2018-12-13T05:23:06.309Z,15.63
2018-12-13T05:25:08.929Z,15.57
2018-12-13T05:27:11.572Z,15.37
2018-12-13T05:29:14.194Z,14.53
2018-12-13T05:31:17.187Z,15.73
2018-12-13T05:33:19.725Z,16.30
2018-12-13T05:35:22.267Z,18.03
2018-12-13T05:37:24.996Z,18.17
2018-12-13T05:39:27.513Z,15.30
2018-12-13T05:41:30.134Z,16.50
2018-12-13T05:43:32.718Z,16.33
2018-12-13T05:45:35.220Z,16.50
2018-12-13T05:47:37.889Z,16.37
2018-12-13T05:49:40.680Z,18.10
2018-12-13T05:51:43.217Z,15.93
2018-12-13T05:53:45.870Z,16.40
2018-12-13T05:55:48.605Z,15.83
2018-12-13T05:57:51.230Z,17.13
2018-12-13T05:59:53.797Z,16.50
2018-12-13T06:01:56.376Z,14.73
2018-12-13T06:03:59.014Z,15.40
2018-12-13T06:06:01.646Z,16.27
2018-12-13T06:08:05.002Z,15.43
2018-12-13T06:10:07.739Z,15.80
2018-12-13T06:12:10.284Z,15.73
2018-12-13T06:14:12.893Z,16.23
2018-12-13T06:16:15.514Z,16.73
2018-12-13T06:18:18.037Z,16.07
2018-12-13T06:20:20.705Z,15.87
2018-12-13T06:22:23.449Z,13.33
2018-12-13T06:24:26.154Z,15.67
2018-12-13T06:26:28.656Z,15.47
2018-12-13T06:28:31.175Z,15.10
2018-12-13T06:30:33.824Z,15.40
2018-12-13T06:32:36.381Z,16.70
2018-12-13T06:34:39.011Z,14.87
2018-12-13T06:36:41.537Z,18.47
2018-12-13T06:38:44.054Z,16.97
2018-12-13T06:40:46.637Z,14.90
2018-12-13T06:42:49.265Z,16.37
2018-12-13T06:44:51.857Z,15.80
2018-12-13T06:46:54.685Z,15.57
2018-12-13T06:48:57.297Z,15.67
2018-12-13T06:50:59.837Z,18.10
2018-12-13T06:53:02.528Z,15.47
2018-12-13T06:55:05.267Z,15.90
2018-12-13T06:57:07.986Z,17.23
2018-12-13T06:59:10.537Z,18.23
2018-12-13T07:01:13.188Z,48.50
2018-12-13T07:03:15.785Z,18.43
2018-12-13T07:05:18.437Z,24.67
2018-12-13T07:07:20.981Z,17.97
2018-12-13T07:09:23.569Z,18.77
2018-12-13T07:11:26.105Z,18.33
2018-12-13T07:13:28.665Z,16.30
2018-12-13T07:15:31.287Z,15.63
2018-12-13T07:17:33.819Z,17.07
2018-12-13T07:19:36.518Z,17.40
2018-12-13T07:21:39.038Z,16.13
2018-12-13T07:23:41.668Z,19.77
2018-12-13T07:25:44.259Z,14.57
2018-12-13T07:27:46.890Z,17.93
2018-12-13T07:29:49.647Z,18.00
2018-12-13T07:31:52.269Z,19.90
2018-12-13T07:33:54.920Z,17.87
2018-12-13T07:35:57.498Z,16.57
2018-12-13T07:38:00.142Z,19.30
2018-12-13T07:40:02.871Z,18.23
2018-12-13T07:42:05.586Z,18.87
2018-12-13T07:44:08.349Z,17.83
2018-12-13T07:46:10.953Z,20.70
2018-12-13T07:48:13.606Z,19.63
2018-12-13T07:50:16.197Z,22.07
2018-12-13T07:52:18.793Z,18.10
2018-12-13T07:54:21.346Z,18.77
2018-12-13T07:56:23.904Z,17.63
2018-12-13T07:58:26.474Z,21.67
2018-12-13T08:00:29.057Z,18.67
2018-12-13T08:02:31.709Z,20.97
2018-12-13T08:06:36.094Z,20.90
2018-12-13T08:08:38.777Z,22.37
2018-12-13T08:10:41.316Z,21.03
2018-12-13T08:12:43.876Z,20.23
2018-12-13T08:14:46.416Z,23.10
2018-12-13T08:16:48.981Z,23.73
2018-12-13T08:18:51.619Z,34.80
2018-12-13T08:20:54.238Z,26.60
2018-12-13T08:22:56.826Z,21.37
2018-12-13T08:24:59.364Z,23.60
2018-12-13T08:27:01.938Z,22.13
2018-12-13T08:29:04.601Z,22.67
2018-12-13T08:31:07.164Z,24.80
2018-12-13T08:33:09.681Z,22.37
2018-12-13T08:35:12.218Z,21.77
2018-12-13T08:37:14.737Z,25.23
2018-12-13T08:39:17.303Z,21.97
2018-12-13T08:41:19.873Z,21.20
2018-12-13T08:43:22.448Z,22.60
2018-12-13T08:45:24.969Z,25.73
2018-12-13T08:47:27.524Z,23.80
2018-12-13T08:49:30.469Z,24.33
2018-12-13T08:51:33.063Z,20.90
2018-12-13T08:53:35.572Z,24.17
2018-12-13T08:55:38.113Z,19.70
2018-12-13T08:57:40.693Z,23.10
2018-12-13T08:59:43.313Z,22.23
2018-12-13T09:01:45.978Z,21.63
2018-12-13T09:03:48.540Z,24.13
2018-12-13T09:05:51.092Z,21.23
2018-12-13T09:07:53.702Z,20.63
2018-12-13T09:09:56.258Z,21.80
2018-12-13T09:11:58.774Z,21.67
2018-12-13T09:14:01.324Z,22.77
2018-12-13T09:16:03.849Z,23.40
2018-12-13T09:18:06.412Z,21.67
2018-12-13T09:20:09.089Z,22.37
2018-12-13T09:22:11.700Z,21.30
2018-12-13T09:24:14.244Z,22.80
2018-12-13T09:26:16.807Z,21.53
2018-12-13T09:28:19.359Z,26.50
2018-12-13T09:30:22.014Z,21.17
2018-12-13T09:32:24.681Z,22.47
2018-12-13T09:34:27.470Z,22.27
2018-12-13T09:36:30.459Z,24.50
2018-12-13T09:38:33.134Z,25.00
2018-12-13T09:40:35.802Z,22.90
2018-12-13T09:42:38.424Z,23.00
2018-12-13T09:44:41.063Z,24.13
2018-12-13T09:46:43.915Z,27.13
2018-12-13T09:48:46.537Z,24.53
2018-12-13T09:50:49.117Z,25.80
2018-12-13T09:52:51.637Z,25.50
2018-12-13T09:54:54.190Z,27.27
2018-12-13T09:56:56.747Z,25.53
2018-12-13T09:58:59.265Z,24.20
2018-12-13T10:01:01.901Z,27.37
2018-12-13T10:03:04.482Z,24.53
2018-12-13T10:05:07.185Z,26.67
2018-12-13T10:07:09.874Z,24.93
2018-12-13T10:09:12.592Z,26.67
2018-12-13T10:11:15.126Z,27.77
2018-12-13T10:13:17.702Z,26.80
2018-12-13T10:15:20.202Z,27.67
2018-12-13T10:17:22.736Z,24.03
2018-12-13T10:19:25.353Z,24.00
2018-12-13T10:21:28.127Z,26.63
2018-12-13T10:23:30.744Z,30.00
2018-12-13T10:25:33.402Z,28.10
2018-12-13T10:27:36.011Z,27.53
2018-12-13T10:29:38.670Z,24.30
2018-12-13T10:31:41.414Z,25.87
2018-12-13T10:33:43.935Z,28.83
2018-12-13T10:35:46.542Z,25.60
2018-12-13T10:37:49.082Z,23.27
2018-12-13T10:39:51.698Z,29.40
2018-12-13T10:41:54.335Z,24.37
2018-12-13T10:43:56.879Z,25.37
2018-12-13T10:45:59.500Z,28.80
2018-12-13T10:48:02.049Z,25.73
2018-12-13T10:50:05.981Z,24.77
2018-12-13T10:52:08.581Z,28.57
2018-12-13T10:54:11.349Z,28.17
2018-12-13T10:56:13.945Z,26.90
2018-12-13T10:58:16.560Z,26.30
2018-12-13T11:03:22.450Z,25.63
2018-12-13T11:05:24.995Z,30.50
2018-12-13T11:07:27.558Z,27.33
2018-12-13T11:09:30.091Z,27.60
2018-12-13T11:11:32.614Z,25.97
2018-12-13T11:13:35.210Z,29.50
2018-12-13T11:15:37.743Z,27.80
2018-12-13T11:17:40.254Z,25.80
2018-12-13T11:19:42.836Z,26.60
2018-12-13T11:21:45.397Z,26.37
2018-12-13T11:23:48.112Z,25.67
2018-12-13T11:25:50.614Z,23.07
2018-12-13T11:28:15.838Z,24.50
2018-12-13T11:30:24.597Z,24.03
2018-12-13T11:32:27.154Z,26.00
2018-12-13T11:34:29.724Z,25.00
2018-12-13T11:36:32.412Z,21.70
2018-12-13T11:38:34.959Z,23.93
2018-12-13T11:40:37.599Z,23.40
2018-12-13T11:42:40.136Z,23.10
2018-12-13T11:44:42.771Z,23.23
2018-12-13T11:46:45.450Z,24.40
2018-12-13T11:48:47.961Z,24.53
2018-12-13T11:50:50.532Z,22.87
2018-12-13T11:52:53.061Z,25.13
2018-12-13T11:54:57.090Z,26.60
2018-12-13T11:56:59.703Z,25.80
2018-12-13T11:59:02.223Z,25.27
2018-12-13T12:01:04.785Z,21.43
2018-12-13T12:03:07.359Z,24.53
2018-12-13T12:05:09.971Z,25.77
2018-12-13T12:07:12.572Z,23.70
2018-12-13T12:09:15.162Z,23.80
2018-12-13T12:11:17.680Z,24.73
2018-12-13T12:13:20.249Z,24.67
2018-12-13T12:15:22.788Z,22.93
2018-12-13T12:17:25.294Z,23.77
2018-12-13T12:19:28.021Z,24.17
2018-12-13T12:21:30.550Z,23.73
2018-12-13T12:23:33.129Z,24.43
2018-12-13T12:25:35.683Z,23.27
2018-12-13T12:27:38.290Z,23.20
2018-12-13T12:29:40.914Z,21.63
2018-12-13T12:31:43.458Z,24.03
2018-12-13T12:33:46.145Z,27.33
2018-12-13T12:35:48.711Z,26.17
2018-12-13T12:37:51.246Z,24.73
2018-12-13T12:39:53.781Z,24.23
2018-12-13T12:41:56.425Z,23.30
2018-12-13T12:43:59.084Z,26.00
2018-12-13T12:46:01.646Z,22.17
2018-12-13T12:48:04.285Z,26.87
2018-12-13T12:50:06.948Z,24.80
2018-12-13T12:52:09.642Z,22.20
2018-12-13T12:54:12.354Z,23.23
2018-12-13T12:56:15.053Z,26.43
2018-12-13T12:58:17.720Z,25.03
2018-12-13T13:00:20.374Z,23.17
2018-12-13T13:02:22.890Z,23.30
2018-12-13T13:04:25.492Z,23.97
2018-12-13T13:06:28.174Z,22.20
2018-12-13T13:08:30.692Z,24.67
2018-12-13T13:10:33.247Z,29.47
2018-12-13T13:12:35.899Z,22.27
2018-12-13T13:14:38.511Z,26.60
2018-12-13T13:16:41.033Z,23.27
2018-12-13T13:18:43.706Z,23.97
2018-12-13T13:20:46.209Z,22.03
2018-12-13T13:22:48.741Z,23.40
2018-12-13T13:24:51.338Z,22.80
2018-12-13T13:26:54.089Z,23.87
2018-12-13T13:28:56.666Z,21.20
2018-12-13T13:30:59.191Z,21.73
2018-12-13T13:33:01.751Z,22.63
2018-12-13T13:35:04.395Z,22.43
2018-12-13T13:37:06.923Z,23.87
2018-12-13T13:39:09.533Z,23.03
2018-12-13T13:41:12.155Z,22.03
2018-12-13T13:43:14.671Z,21.60
2018-12-13T13:45:17.414Z,24.60
2018-12-13T13:47:20.210Z,19.63
2018-12-13T13:49:22.736Z,19.33
2018-12-13T13:51:25.469Z,22.23
2018-12-13T13:53:27.989Z,22.37
2018-12-13T13:55:30.590Z,21.73
2018-12-13T13:57:33.156Z,19.87
2018-12-13T13:59:35.709Z,24.83
2018-12-13T14:01:38.316Z,22.00
2018-12-13T14:03:40.870Z,20.50
2018-12-13T14:05:43.420Z,20.90
2018-12-13T14:07:45.962Z,20.83
2018-12-13T14:09:48.476Z,22.47
2018-12-13T14:11:51.125Z,20.60
2018-12-13T14:13:53.727Z,20.50
2018-12-13T14:15:56.374Z,21.33
2018-12-13T14:17:58.911Z,22.07
2018-12-13T14:20:01.485Z,20.83
2018-12-13T14:22:04.018Z,20.40
2018-12-13T14:24:06.691Z,21.53
2018-12-13T14:26:09.290Z,21.43
2018-12-13T14:28:11.797Z,24.17
2018-12-13T14:30:14.413Z,22.90
2018-12-13T14:32:16.916Z,21.37
2018-12-13T14:34:19.472Z,21.50
2018-12-13T14:36:22.158Z,20.70
2018-12-13T14:38:24.807Z,21.60
2018-12-13T14:40:29.489Z,21.43
2018-12-13T14:42:32.046Z,23.93
2018-12-13T14:44:34.592Z,21.50
2018-12-13T14:46:37.253Z,19.13
2018-12-13T14:48:39.898Z,25.07
2018-12-13T14:50:42.414Z,20.87
2018-12-13T14:52:44.994Z,21.53
2018-12-13T14:54:47.542Z,20.60
2018-12-13T14:56:50.161Z,22.13
2018-12-13T14:58:52.803Z,19.80
2018-12-13T15:00:55.493Z,19.43
2018-12-13T15:02:58.038Z,21.87
2018-12-13T15:05:00.879Z,20.10
2018-12-13T15:07:03.535Z,22.57
2018-12-13T15:09:06.318Z,19.67
2018-12-13T15:11:08.911Z,19.37
2018-12-13T15:13:11.493Z,20.80
2018-12-13T15:15:14.239Z,22.90
2018-12-13T15:17:16.865Z,21.00
2018-12-13T15:19:19.475Z,23.00
2018-12-13T15:21:22.133Z,21.00
2018-12-13T15:23:24.758Z,19.13
2018-12-13T15:25:27.303Z,23.30
2018-12-13T15:27:29.837Z,23.20
2018-12-13T15:29:32.495Z,21.60
2018-12-13T15:31:35.003Z,22.70
2018-12-13T15:33:37.627Z,20.37
2018-12-13T15:35:40.190Z,22.53
2018-12-13T15:37:42.992Z,19.53
2018-12-13T15:39:45.562Z,20.53
2018-12-13T15:41:48.113Z,23.23
2018-12-13T15:43:50.650Z,20.20
2018-12-13T15:45:53.187Z,22.40
2018-12-13T15:47:55.759Z,21.17
2018-12-13T15:49:58.372Z,33.33
2018-12-13T15:52:00.960Z,29.00
2018-12-13T15:54:03.489Z,27.53
2018-12-13T15:56:06.026Z,31.00
2018-12-13T15:58:08.546Z,26.13
2018-12-13T16:00:11.275Z,22.40
2018-12-13T16:02:13.957Z,24.90
2018-12-13T16:04:16.506Z,35.23
2018-12-13T16:06:19.056Z,23.97
2018-12-13T16:08:21.629Z,32.90
2018-12-13T16:10:24.193Z,31.20
2018-12-13T16:12:26.858Z,64.83
2018-12-13T16:14:29.453Z,28.10
2018-12-13T16:16:32.116Z,22.13
2018-12-13T16:18:34.705Z,26.37
2018-12-13T16:20:37.321Z,23.47
2018-12-13T16:22:39.863Z,21.47
2018-12-13T16:24:42.447Z,23.83
2018-12-13T16:26:45.104Z,25.57
2018-12-13T16:28:47.714Z,28.73
2018-12-13T16:30:50.270Z,28.60
2018-12-13T16:32:52.888Z,48.93
2018-12-13T16:34:55.674Z,30.50
2018-12-13T16:36:58.250Z,33.73
2018-12-13T16:39:00.871Z,28.03
2018-12-13T16:41:03.418Z,30.30
2018-12-13T16:43:05.934Z,28.97
2018-12-13T16:45:08.618Z,70.50
2018-12-13T16:47:11.265Z,29.07
2018-12-13T16:49:13.909Z,27.53
2018-12-13T16:51:16.499Z,30.33
2018-12-13T16:53:19.106Z,24.60
2018-12-13T16:55:21.755Z,23.77
2018-12-13T16:57:24.516Z,23.77
2018-12-13T16:59:27.022Z,23.07
2018-12-13T17:01:29.591Z,23.77
2018-12-13T17:03:39.551Z,21.63
2018-12-13T17:05:42.101Z,26.27
2018-12-13T17:07:44.829Z,24.13
2018-12-13T17:09:47.350Z,26.43
2018-12-13T17:11:50.089Z,27.90
2018-12-13T17:13:52.783Z,41.53
2018-12-13T17:15:55.439Z,22.17
2018-12-13T17:17:58.134Z,25.93
2018-12-13T17:20:00.748Z,23.63
2018-12-13T17:22:03.345Z,26.03
2018-12-13T17:24:05.920Z,20.97
2018-12-13T17:26:08.468Z,23.63
2018-12-13T17:28:11.138Z,26.57
2018-12-13T17:30:13.669Z,23.50
2018-12-13T17:32:16.371Z,23.97
2018-12-13T17:34:19.055Z,25.03
2018-12-13T17:36:21.661Z,23.13
2018-12-13T17:38:24.233Z,23.23
2018-12-13T17:40:26.842Z,25.30
2018-12-13T17:42:29.485Z,21.93
2018-12-13T17:44:32.153Z,23.93
2018-12-13T17:46:34.689Z,22.90
2018-12-13T17:50:46.035Z,22.87
2018-12-13T17:52:48.645Z,21.73
2018-12-13T17:54:51.153Z,22.13
2018-12-13T17:56:53.746Z,21.63
2018-12-13T17:58:56.325Z,24.17
2018-12-13T18:00:58.935Z,23.63
2018-12-13T18:03:01.543Z,18.93
2018-12-13T18:05:04.828Z,24.20
2018-12-13T18:07:07.385Z,23.20
2018-12-13T18:09:09.955Z,22.03
2018-12-13T18:11:12.622Z,23.43
2018-12-13T18:13:15.416Z,24.67
2018-12-13T18:15:18.030Z,23.40
2018-12-13T18:17:20.643Z,23.00
2018-12-13T18:19:23.207Z,24.43
2018-12-13T18:21:26.944Z,21.10
2018-12-13T18:23:29.597Z,23.13
2018-12-13T18:25:32.320Z,22.60
2018-12-13T18:27:34.989Z,31.40
2018-12-13T18:29:37.697Z,20.90
2018-12-13T18:31:40.259Z,24.33
2018-12-13T18:33:42.999Z,24.27
2018-12-13T18:35:45.680Z,22.13
2018-12-13T18:37:48.413Z,21.67
2018-12-13T18:39:51.132Z,23.50
2018-12-13T18:41:53.803Z,24.90
2018-12-13T18:43:56.379Z,24.07
2018-12-13T18:45:58.997Z,21.70
2018-12-13T18:48:01.549Z,26.27
2018-12-13T18:50:05.333Z,24.23
2018-12-13T18:52:07.855Z,23.20
2018-12-13T18:54:10.485Z,24.97
2018-12-13T18:56:13.033Z,24.70
2018-12-13T18:58:15.626Z,24.60
2018-12-13T19:00:18.311Z,26.67
2018-12-13T19:02:20.913Z,23.50
2018-12-13T19:04:23.517Z,21.07
2018-12-13T19:06:26.231Z,25.20
2018-12-13T19:08:29.146Z,24.07
2018-12-13T19:10:31.730Z,26.03
2018-12-13T19:12:34.310Z,26.27
2018-12-13T19:14:36.876Z,23.00
2018-12-13T19:16:40.397Z,25.37
2018-12-13T19:18:44.129Z,27.33
2018-12-13T19:20:46.962Z,25.10
2018-12-13T19:22:49.597Z,25.93
2018-12-13T19:24:52.178Z,62.50
2018-12-13T19:26:54.734Z,27.27
2018-12-13T19:28:57.431Z,25.00
2018-12-13T19:31:00.143Z,36.33
2018-12-13T19:33:02.744Z,28.60
2018-12-13T19:35:05.282Z,27.70
2018-12-13T19:37:07.888Z,35.27
2018-12-13T19:39:10.491Z,29.90
2018-12-13T19:41:13.025Z,27.70
2018-12-13T19:43:15.617Z,27.07
2018-12-13T19:45:18.150Z,30.73
2018-12-13T19:47:20.780Z,27.10
2018-12-13T19:49:23.311Z,27.47
2018-12-13T19:51:25.882Z,30.90
2018-12-13T19:53:28.566Z,29.87
2018-12-13T19:55:31.328Z,28.77
2018-12-13T19:57:33.890Z,32.77
2018-12-13T19:59:36.538Z,28.60
2018-12-13T20:01:39.138Z,26.37
2018-12-13T20:03:41.902Z,29.70
2018-12-13T20:05:44.469Z,42.00
2018-12-13T20:07:47.018Z,34.07
2018-12-13T20:09:49.584Z,25.70
2018-12-13T20:11:52.175Z,32.07
2018-12-13T20:13:54.916Z,30.23
2018-12-13T20:15:57.454Z,31.63
2018-12-13T20:18:00.092Z,31.80
2018-12-13T20:20:03.033Z,37.60
2018-12-13T20:22:05.595Z,35.93
2018-12-13T20:24:08.205Z,30.73
2018-12-13T20:26:10.723Z,43.20
2018-12-13T20:28:13.351Z,39.23
2018-12-13T20:30:16.184Z,37.67
2018-12-13T20:32:18.836Z,31.20
2018-12-13T20:34:21.434Z,31.00
2018-12-13T20:36:24.087Z,31.60
2018-12-13T20:38:26.724Z,32.50
2018-12-13T20:40:29.319Z,32.33
2018-12-13T20:42:31.870Z,29.93
2018-12-13T20:44:34.470Z,29.60
2018-12-13T20:46:37.039Z,31.63
2018-12-13T20:48:39.555Z,31.40
2018-12-13T20:50:42.213Z,31.27
2018-12-13T20:52:44.832Z,32.63
2018-12-13T20:54:47.377Z,29.40
2018-12-13T20:56:49.969Z,31.07
2018-12-13T20:58:53.305Z,34.37
2018-12-13T21:00:55.979Z,31.00
2018-12-13T21:02:58.536Z,33.43
2018-12-13T21:05:01.062Z,34.20
2018-12-13T21:07:09.714Z,29.67
2018-12-13T21:09:12.255Z,40.77
2018-12-13T21:11:14.813Z,33.53
2018-12-13T21:13:17.429Z,36.43
2018-12-13T21:15:19.996Z,37.33
2018-12-13T21:17:22.693Z,32.80
2018-12-13T21:19:25.301Z,33.17
2018-12-13T21:21:27.898Z,34.50
2018-12-13T21:23:30.597Z,36.27
2018-12-13T21:25:33.242Z,36.93
2018-12-13T21:27:35.894Z,32.10
2018-12-13T21:29:38.610Z,40.83
2018-12-13T21:31:41.275Z,33.60
2018-12-13T21:33:43.875Z,34.37
2018-12-13T21:35:46.549Z,36.70
2018-12-13T21:37:49.177Z,35.80
2018-12-13T21:39:51.705Z,31.07
2018-12-13T21:41:54.254Z,36.10
2018-12-13T21:43:56.805Z,32.23
2018-12-13T21:45:59.381Z,38.10
2018-12-13T21:48:02.014Z,30.80
2018-12-13T21:50:06.371Z,30.97
2018-12-13T21:52:08.998Z,37.57
2018-12-13T21:54:11.639Z,34.40
2018-12-13T21:56:14.246Z,35.10
2018-12-13T21:58:16.781Z,33.33
2018-12-13T22:00:19.365Z,32.60
2018-12-13T22:02:21.906Z,33.03
2018-12-13T22:04:24.551Z,33.23
2018-12-13T22:06:27.069Z,34.67
2018-12-13T22:08:29.738Z,33.33
2018-12-13T22:10:32.387Z,32.70
2018-12-13T22:12:34.918Z,33.07
2018-12-13T22:14:37.561Z,32.87
2018-12-13T22:16:40.141Z,35.77
2018-12-13T22:18:42.651Z,32.50
2018-12-13T22:20:45.188Z,34.30
2018-12-13T22:22:47.744Z,35.53
2018-12-13T22:24:50.296Z,33.77
2018-12-13T22:26:52.821Z,31.83
2018-12-13T22:28:55.452Z,34.57
2018-12-13T22:30:57.985Z,32.40
2018-12-13T22:33:00.514Z,36.83
2018-12-13T22:35:03.490Z,37.93
2018-12-13T22:37:06.245Z,36.17
2018-12-13T22:39:08.950Z,36.13
2018-12-13T22:41:11.580Z,35.13
2018-12-13T22:43:20.431Z,36.43
2018-12-13T22:45:18.746Z,32.20
2018-12-13T22:47:21.373Z,35.33
2018-12-13T22:49:24.038Z,34.03
2018-12-13T22:51:26.679Z,40.43
2018-12-13T22:53:29.214Z,34.67
2018-12-13T22:55:31.780Z,36.90
2018-12-13T22:57:34.993Z,34.00
2018-12-13T22:59:37.820Z,41.20
2018-12-13T23:01:40.375Z,37.43
2018-12-13T23:03:43.006Z,33.77
2018-12-13T23:05:45.556Z,37.13
2018-12-13T23:07:48.126Z,42.67
2018-12-13T23:09:50.666Z,39.87
2018-12-13T23:11:53.433Z,35.97
2018-12-13T23:13:55.993Z,33.67
2018-12-13T23:15:58.551Z,38.30
2018-12-13T23:18:01.097Z,37.10
2018-12-13T23:20:04.183Z,37.23
2018-12-13T23:22:06.736Z,37.17
2018-12-13T23:24:09.272Z,39.83
2018-12-13T23:26:11.809Z,36.83
2018-12-13T23:28:14.319Z,40.60
2018-12-13T23:30:16.862Z,35.87
2018-12-13T23:32:19.481Z,34.10
2018-12-13T23:34:22.202Z,36.83
2018-12-13T23:36:24.739Z,38.23
2018-12-13T23:38:27.242Z,34.80
2018-12-13T23:40:29.861Z,35.77
2018-12-13T23:42:32.392Z,33.50
2018-12-13T23:44:35.099Z,38.90
2018-12-13T23:46:37.617Z,32.33
2018-12-13T23:48:40.253Z,37.33
2018-12-13T23:50:42.765Z,34.93
2018-12-13T23:52:45.365Z,34.03
2018-12-13T23:54:47.982Z,37.53
2018-12-13T23:56:50.723Z,37.97
2018-12-13T23:58:53.460Z,36.67
